createdAt,value
2018-07-14T00:00:22.168Z,70.30
2018-07-14T00:02:50.516Z,70.10
2018-07-14T00:05:18.881Z,70.00
2018-07-14T00:07:47.211Z,70.30
2018-07-14T00:10:15.556Z,70.60
2018-07-14T00:12:43.892Z,70.80
2018-07-14T00:15:12.337Z,71.90
2018-07-14T00:20:08.777Z,71.20
2018-07-14T00:22:37.124Z,71.10
2018-07-14T00:25:05.733Z,71.40
2018-07-14T00:27:34.064Z,71.60
2018-07-14T00:30:02.417Z,71.70
2018-07-14T00:32:30.777Z,71.80
2018-07-14T00:34:59.116Z,71.90
2018-07-14T00:37:27.474Z,72.20
2018-07-14T00:39:55.892Z,72.70
2018-07-14T00:42:24.212Z,73.00
2018-07-14T00:44:52.641Z,73.70
2018-07-14T00:47:20.990Z,73.80
2018-07-14T00:49:49.333Z,74.50
2018-07-14T00:52:17.667Z,74.00
2018-07-14T00:54:46.017Z,75.20
2018-07-14T00:57:14.336Z,74.40
2018-07-14T00:59:42.749Z,74.90
2018-07-14T01:02:11.085Z,74.60
2018-07-14T01:04:39.427Z,74.30
2018-07-14T01:07:07.771Z,74.30
2018-07-14T01:09:36.125Z,74.40
2018-07-14T01:12:04.508Z,74.50
2018-07-14T01:14:32.848Z,74.80
2018-07-14T01:17:01.212Z,75.10
2018-07-14T01:19:29.553Z,75.30
2018-07-14T01:21:57.888Z,75.90
2018-07-14T01:24:26.236Z,76.00
2018-07-14T01:26:54.593Z,75.50
2018-07-14T01:29:22.896Z,75.80
2018-07-14T01:31:51.228Z,76.10
2018-07-14T01:34:19.537Z,76.10
2018-07-14T01:36:47.884Z,76.10
2018-07-14T01:39:16.192Z,76.10
2018-07-14T01:41:44.553Z,76.20
2018-07-14T01:44:12.896Z,76.40
2018-07-14T01:46:41.238Z,76.50
2018-07-14T01:49:09.544Z,76.60
2018-07-14T01:51:37.900Z,76.90
2018-07-14T01:54:06.252Z,77.40
2018-07-14T01:56:34.597Z,77.50
2018-07-14T01:59:02.920Z,77.60
2018-07-14T02:01:31.341Z,78.00
2018-07-14T02:03:59.654Z,78.40
2018-07-14T02:06:27.989Z,78.70
2018-07-14T02:11:24.367Z,79.00
2018-07-14T02:13:52.681Z,79.40
2018-07-14T02:16:21.036Z,80.10
2018-07-14T02:18:49.356Z,81.10
2018-07-14T02:21:17.717Z,81.90
2018-07-14T02:23:46.010Z,82.30
2018-07-14T02:26:14.361Z,82.60
2018-07-14T02:28:42.684Z,82.60
2018-07-14T02:31:11.081Z,83.00
2018-07-14T02:33:39.552Z,83.30
2018-07-14T02:36:07.897Z,83.60
2018-07-14T02:38:36.217Z,84.00
2018-07-14T02:41:04.557Z,84.20
2018-07-14T02:43:32.893Z,84.40
2018-07-14T02:46:01.246Z,85.20
2018-07-14T02:48:29.562Z,85.80
2018-07-14T02:50:57.947Z,86.20
2018-07-14T02:53:26.268Z,86.50
2018-07-14T02:55:54.629Z,86.40
2018-07-14T02:58:22.938Z,86.70
2018-07-14T03:00:51.261Z,87.30
2018-07-14T03:03:19.707Z,87.50
2018-07-14T03:05:48.021Z,87.60
2018-07-14T03:08:16.356Z,88.00
2018-07-14T03:10:44.680Z,88.30
2018-07-14T03:13:13.034Z,88.30
2018-07-14T03:15:41.338Z,88.30
2018-07-14T03:18:09.712Z,88.10
2018-07-14T03:20:38.013Z,87.90
2018-07-14T03:23:06.380Z,87.80
2018-07-14T03:25:34.696Z,87.60
2018-07-14T03:28:03.023Z,88.00
2018-07-14T03:30:31.333Z,88.70
2018-07-14T03:32:59.764Z,89.10
2018-07-14T03:35:28.093Z,89.40
2018-07-14T03:37:56.428Z,89.40
2018-07-14T03:40:24.735Z,89.80
2018-07-14T03:42:53.089Z,90.00
2018-07-14T03:47:49.481Z,90.20
2018-07-14T03:50:17.808Z,90.50
2018-07-14T03:52:46.152Z,90.70
2018-07-14T03:55:14.472Z,90.70
2018-07-14T03:57:42.804Z,90.70
2018-07-14T04:00:11.120Z,90.40
2018-07-14T04:02:39.573Z,90.20
2018-07-14T04:05:07.941Z,90.00
2018-07-14T04:07:36.293Z,90.00
2018-07-14T04:10:04.637Z,89.80
2018-07-14T04:12:32.993Z,90.00
2018-07-14T04:15:01.400Z,90.00
2018-07-14T04:17:29.745Z,90.00
2018-07-14T04:19:58.066Z,90.50
2018-07-14T04:22:26.419Z,90.10
2018-07-14T04:24:54.728Z,90.10
2018-07-14T04:27:23.058Z,90.10
2018-07-14T04:29:51.393Z,90.20
2018-07-14T04:32:19.745Z,90.40
2018-07-14T04:37:16.140Z,91.00
2018-07-14T04:39:44.452Z,91.20
2018-07-14T04:42:12.815Z,91.30
2018-07-14T04:44:41.131Z,91.40
2018-07-14T04:47:09.477Z,91.50
2018-07-14T04:49:37.798Z,91.40
2018-07-14T04:52:06.157Z,91.70
2018-07-14T04:54:34.504Z,91.80
2018-07-14T04:57:02.820Z,91.60
2018-07-14T04:59:31.193Z,91.40
2018-07-14T05:01:59.505Z,91.60
2018-07-14T05:04:27.873Z,91.50
2018-07-14T05:09:24.293Z,91.10
2018-07-14T05:11:52.597Z,91.10
2018-07-14T05:14:20.941Z,91.10
2018-07-14T05:16:49.297Z,91.00
2018-07-14T05:19:17.652Z,90.90
2018-07-14T05:21:45.989Z,91.00
2018-07-14T05:24:14.341Z,91.20
2018-07-14T05:26:42.645Z,91.00
2018-07-14T05:29:10.988Z,90.80
2018-07-14T05:31:39.329Z,90.50
2018-07-14T05:34:07.696Z,90.20
2018-07-14T05:36:36.005Z,89.30
2018-07-14T05:39:05.325Z,88.20
2018-07-14T05:41:33.630Z,86.60
2018-07-14T05:44:02.026Z,85.00
2018-07-14T05:46:30.308Z,83.10
2018-07-14T05:48:58.657Z,82.80
2018-07-14T05:51:27.000Z,81.60
2018-07-14T05:53:55.342Z,80.80
2018-07-14T05:56:23.677Z,78.60
2018-07-14T05:58:52.066Z,76.60
2018-07-14T06:01:20.385Z,76.10
2018-07-14T06:03:48.732Z,76.40
2018-07-14T06:06:17.036Z,77.90
2018-07-14T06:08:45.385Z,78.10
2018-07-14T06:11:13.688Z,76.00
2018-07-14T06:13:42.033Z,74.70
2018-07-14T06:16:10.353Z,73.50
2018-07-14T06:18:38.749Z,73.10
2018-07-14T06:21:07.118Z,72.40
2018-07-14T06:23:35.460Z,71.80
2018-07-14T06:26:03.809Z,71.50
2018-07-14T06:28:33.024Z,70.80
2018-07-14T06:31:01.347Z,69.50
2018-07-14T06:33:29.733Z,68.40
2018-07-14T06:35:58.056Z,68.80
2018-07-14T06:38:26.456Z,68.40
2018-07-14T06:40:54.756Z,67.00
2018-07-14T06:43:23.110Z,67.30
2018-07-14T06:45:51.445Z,67.20
2018-07-14T06:48:19.820Z,67.00
2018-07-14T06:50:48.137Z,66.50
2018-07-14T06:53:16.508Z,66.70
2018-07-14T06:55:44.880Z,67.50
2018-07-14T06:58:13.208Z,66.70
2018-07-14T07:00:41.573Z,66.40
2018-07-14T07:03:09.913Z,66.60
2018-07-14T07:05:38.255Z,65.20
2018-07-14T07:08:06.945Z,65.60
2018-07-14T07:10:35.313Z,64.80
2018-07-14T07:13:03.696Z,64.70
2018-07-14T07:15:32.064Z,64.10
2018-07-14T07:18:00.429Z,62.20
2018-07-14T07:20:28.811Z,62.70
2018-07-14T07:22:57.136Z,61.20
2018-07-14T07:25:25.500Z,60.00
2018-07-14T07:27:53.817Z,59.50
2018-07-14T07:30:22.176Z,59.70
2018-07-14T07:32:50.488Z,58.70
2018-07-14T07:35:18.859Z,58.00
2018-07-14T07:37:47.192Z,58.10
2018-07-14T07:40:15.553Z,57.70
2018-07-14T07:42:43.949Z,57.20
2018-07-14T07:45:12.306Z,55.70
2018-07-14T07:47:40.636Z,55.40
2018-07-14T07:50:08.996Z,55.80
2018-07-14T07:52:37.305Z,55.70
2018-07-14T07:57:33.689Z,55.40
2018-07-14T08:00:02.100Z,56.40
2018-07-14T08:02:30.499Z,55.90
2018-07-14T08:04:58.854Z,56.10
2018-07-14T08:07:27.170Z,54.70
2018-07-14T08:09:55.516Z,54.60
2018-07-14T08:12:23.845Z,54.30
2018-07-14T08:14:52.540Z,54.40
2018-07-14T08:17:20.857Z,54.10
2018-07-14T08:19:49.201Z,51.90
2018-07-14T08:22:17.536Z,52.40
2018-07-14T08:24:45.913Z,52.10
2018-07-14T08:27:14.221Z,52.10
2018-07-14T08:29:42.552Z,50.40
2018-07-14T08:32:10.865Z,50.70
2018-07-14T08:37:08.783Z,51.90
2018-07-14T08:39:37.620Z,49.60
2018-07-14T08:42:06.083Z,50.50
2018-07-14T08:44:34.456Z,51.50
2018-07-14T08:47:02.776Z,50.50
2018-07-14T08:49:31.112Z,49.20
2018-07-14T08:51:59.444Z,50.20
2018-07-14T08:54:27.828Z,49.90
2018-07-14T08:56:56.157Z,48.70
2018-07-14T08:59:24.481Z,48.60
2018-07-14T09:01:52.832Z,49.20
2018-07-14T09:04:21.148Z,50.10
2018-07-14T09:06:49.517Z,47.80
2018-07-14T09:09:17.828Z,48.10
2018-07-14T09:11:46.166Z,49.40
2018-07-14T09:14:14.472Z,47.50
2018-07-14T09:16:42.821Z,45.80
2018-07-14T09:19:11.204Z,46.60
2018-07-14T09:21:39.565Z,48.80
2018-07-14T09:24:07.977Z,49.10
2018-07-14T09:26:36.314Z,48.70
2018-07-14T09:29:04.633Z,48.60
2018-07-14T09:31:33.041Z,48.80
2018-07-14T09:34:01.398Z,47.60
2018-07-14T09:36:29.743Z,48.30
2018-07-14T09:38:58.080Z,47.60
2018-07-14T09:41:26.424Z,48.90
2018-07-14T09:43:54.981Z,48.50
2018-07-14T09:46:23.383Z,47.90
2018-07-14T09:48:51.717Z,48.80
2018-07-14T09:51:20.432Z,47.90
2018-07-14T09:53:48.747Z,48.30
2018-07-14T09:56:17.120Z,48.00
2018-07-14T09:58:45.461Z,48.70
2018-07-14T10:01:13.805Z,47.00
2018-07-14T10:03:42.130Z,46.80
2018-07-14T10:06:10.559Z,47.10
2018-07-14T10:08:38.849Z,45.90
2018-07-14T10:11:07.292Z,45.00
2018-07-14T10:13:35.622Z,45.60
2018-07-14T10:16:03.981Z,44.30
2018-07-14T10:18:32.308Z,45.30
2018-07-14T10:21:00.698Z,46.30
2018-07-14T10:23:29.021Z,46.30
2018-07-14T10:25:57.472Z,45.30
2018-07-14T10:28:25.672Z,45.30
2018-07-14T10:30:54.021Z,44.40
2018-07-14T10:33:29.414Z,44.10
2018-07-14T10:35:59.186Z,44.90
2018-07-14T10:38:27.498Z,44.50
2018-07-14T10:40:55.868Z,44.50
2018-07-14T10:43:24.184Z,45.10
2018-07-14T10:45:52.540Z,44.60
2018-07-14T10:48:20.869Z,45.30
2018-07-14T10:50:49.228Z,45.80
2018-07-14T10:53:17.588Z,45.50
2018-07-14T10:55:45.952Z,44.40
2018-07-14T10:58:14.385Z,44.50
2018-07-14T11:00:42.670Z,44.30
2018-07-14T11:05:39.016Z,44.90
2018-07-14T11:08:07.428Z,43.60
2018-07-14T11:10:35.758Z,44.60
2018-07-14T11:13:04.136Z,44.10
2018-07-14T11:15:32.461Z,43.30
2018-07-14T11:18:00.809Z,44.10
2018-07-14T11:20:29.122Z,44.40
2018-07-14T11:22:57.469Z,43.30
2018-07-14T11:25:25.783Z,43.60
2018-07-14T11:27:54.201Z,43.20
2018-07-14T11:30:22.594Z,43.20
2018-07-14T11:32:50.900Z,41.70
2018-07-14T11:35:19.210Z,41.70
2018-07-14T11:37:52.213Z,41.70
2018-07-14T11:40:20.544Z,42.10
2018-07-14T11:42:48.916Z,43.40
2018-07-14T11:45:17.234Z,43.40
2018-07-14T11:47:45.603Z,43.40
2018-07-14T11:50:13.981Z,43.50
2018-07-14T11:52:42.353Z,42.70
2018-07-14T11:55:10.682Z,43.60
2018-07-14T11:57:39.085Z,43.20
2018-07-14T12:02:35.489Z,41.40
2018-07-14T12:05:04.013Z,42.10
2018-07-14T12:07:32.360Z,43.10
2018-07-14T12:10:00.713Z,42.70
2018-07-14T12:12:29.072Z,42.10
2018-07-14T12:14:57.378Z,43.00
2018-07-14T12:17:25.733Z,42.40
2018-07-14T12:19:54.093Z,43.60
2018-07-14T12:22:22.493Z,43.50
2018-07-14T12:24:50.796Z,43.10
2018-07-14T12:27:19.140Z,42.70
2018-07-14T12:29:47.477Z,42.90
2018-07-14T12:32:15.838Z,42.10
2018-07-14T12:34:44.186Z,42.80
2018-07-14T12:37:12.543Z,42.50
2018-07-14T12:39:40.840Z,42.70
2018-07-14T12:42:09.181Z,42.80
2018-07-14T12:44:37.493Z,42.70
2018-07-14T12:47:05.845Z,41.70
2018-07-14T12:49:34.148Z,42.70
2018-07-14T12:52:02.540Z,41.70
2018-07-14T12:54:30.869Z,42.20
2018-07-14T12:56:59.221Z,41.90
2018-07-14T12:59:27.530Z,42.60
2018-07-14T13:01:55.901Z,42.10
2018-07-14T13:04:24.221Z,42.80
2018-07-14T13:06:52.556Z,42.90
2018-07-14T13:09:20.874Z,40.90
2018-07-14T13:11:49.469Z,41.80
2018-07-14T13:16:45.853Z,43.00
2018-07-14T13:19:14.196Z,43.40
2018-07-14T13:24:10.581Z,42.40
2018-07-14T13:26:38.896Z,40.60
2018-07-14T13:29:07.249Z,40.50
2018-07-14T13:31:35.745Z,42.20
2018-07-14T13:34:04.100Z,42.20
2018-07-14T13:36:32.409Z,40.90
2018-07-14T13:39:00.756Z,41.30
2018-07-14T13:41:29.069Z,41.00
2018-07-14T13:43:57.419Z,41.00
2018-07-14T13:46:25.756Z,41.50
2018-07-14T13:48:54.104Z,39.40
2018-07-14T13:51:22.400Z,40.10
2018-07-14T13:53:50.743Z,38.40
2018-07-14T13:56:19.060Z,38.90
2018-07-14T13:58:47.451Z,38.40
2018-07-14T14:01:15.856Z,38.30
2018-07-14T14:03:44.208Z,38.20
2018-07-14T14:08:40.590Z,38.40
2018-07-14T14:11:08.973Z,38.10
2018-07-14T14:13:37.298Z,39.20
2018-07-14T14:16:06.025Z,38.10
2018-07-14T14:18:34.393Z,38.00
2018-07-14T14:21:02.749Z,38.10
2018-07-14T14:23:31.093Z,39.00
2018-07-14T14:25:59.428Z,38.70
2018-07-14T14:28:27.756Z,39.40
2018-07-14T14:30:56.072Z,40.00
2018-07-14T14:33:24.420Z,40.30
2018-07-14T14:35:52.748Z,40.70
2018-07-14T14:38:21.112Z,41.20
2018-07-14T14:40:49.532Z,40.30
2018-07-14T14:43:17.896Z,41.50
2018-07-14T14:45:46.233Z,42.60
2018-07-14T14:48:14.686Z,42.10
2018-07-14T14:50:43.052Z,41.30
2018-07-14T14:53:11.780Z,41.40
2018-07-14T14:55:40.203Z,42.00
2018-07-14T15:00:37.261Z,42.00
2018-07-14T15:03:05.661Z,41.80
2018-07-14T15:08:02.050Z,42.30
2018-07-14T15:10:30.369Z,40.90
2018-07-14T15:12:58.712Z,40.60
2018-07-14T15:15:27.027Z,40.90
2018-07-14T15:17:55.400Z,41.10
2018-07-14T15:20:23.745Z,41.70
2018-07-14T15:22:52.149Z,40.10
2018-07-14T15:25:20.716Z,40.50
2018-07-14T15:27:49.082Z,41.70
2018-07-14T15:30:17.428Z,42.50
2018-07-14T15:32:45.980Z,41.60
2018-07-14T15:35:14.212Z,41.00
2018-07-14T15:37:42.520Z,41.70
2018-07-14T15:40:10.969Z,41.20
2018-07-14T15:42:39.281Z,41.50
2018-07-14T15:45:07.677Z,41.70
2018-07-14T15:47:35.977Z,43.60
2018-07-14T15:52:32.376Z,42.10
2018-07-14T15:55:00.706Z,41.00
2018-07-14T15:57:29.033Z,40.30
2018-07-14T15:59:57.368Z,40.20
2018-07-14T16:02:25.696Z,40.10
2018-07-14T16:04:54.024Z,40.50
2018-07-14T16:07:22.337Z,41.30
2018-07-14T16:09:50.692Z,42.10
2018-07-14T16:12:18.995Z,41.80
2018-07-14T16:14:47.334Z,41.90
2018-07-14T16:17:15.642Z,42.50
2018-07-14T16:19:43.990Z,42.00
2018-07-14T16:24:40.445Z,42.90
2018-07-14T16:27:08.777Z,42.90
2018-07-14T16:29:37.108Z,42.10
2018-07-14T16:32:05.552Z,42.30
2018-07-14T16:34:33.957Z,43.10
2018-07-14T16:39:30.392Z,43.20
2018-07-14T16:41:58.757Z,42.20
2018-07-14T16:44:27.118Z,42.10
2018-07-14T16:46:55.444Z,42.50
2018-07-14T16:49:23.816Z,42.20
2018-07-14T16:51:52.229Z,42.30
2018-07-14T16:59:16.670Z,42.40
2018-07-14T17:01:45.080Z,42.20
2018-07-14T17:04:13.424Z,42.70
2018-07-14T17:06:41.754Z,42.40
2018-07-14T17:09:10.553Z,42.70
2018-07-14T17:11:38.868Z,42.30
2018-07-14T17:14:07.413Z,43.60
2018-07-14T17:16:35.605Z,43.50
2018-07-14T17:21:32.007Z,44.50
2018-07-14T17:24:00.313Z,45.00
2018-07-14T17:26:28.652Z,44.20
2018-07-14T17:28:56.956Z,44.70
2018-07-14T17:31:25.369Z,44.60
2018-07-14T17:33:53.704Z,44.90
2018-07-14T17:36:22.313Z,45.60
2018-07-14T17:38:50.644Z,45.30
2018-07-14T17:41:19.021Z,44.60
2018-07-14T17:43:47.373Z,44.70
2018-07-14T17:46:15.710Z,45.30
2018-07-14T17:48:44.025Z,45.90
2018-07-14T17:51:12.365Z,46.60
2018-07-14T17:53:40.761Z,46.50
2018-07-14T17:56:09.126Z,46.80
2018-07-14T17:58:37.486Z,47.30
2018-07-14T18:01:06.132Z,47.40
2018-07-14T18:03:34.465Z,47.20
2018-07-14T18:06:02.801Z,46.90
2018-07-14T18:08:31.112Z,47.20
2018-07-14T18:10:59.452Z,47.20
2018-07-14T18:15:55.860Z,47.50
2018-07-14T18:18:24.215Z,47.20
2018-07-14T18:20:52.730Z,47.70
2018-07-14T18:23:21.065Z,47.60
2018-07-14T18:25:49.437Z,47.80
2018-07-14T18:28:17.772Z,47.90
2018-07-14T18:30:48.462Z,48.20
2018-07-14T18:33:16.792Z,48.40
2018-07-14T18:35:45.133Z,48.90
2018-07-14T18:38:13.445Z,49.20
2018-07-14T18:40:41.816Z,48.70
2018-07-14T18:43:10.121Z,49.10
2018-07-14T18:45:38.489Z,48.80
2018-07-14T18:48:06.792Z,48.80
2018-07-14T18:50:35.127Z,49.10
2018-07-14T18:53:03.445Z,49.50
2018-07-14T18:55:31.785Z,49.50
2018-07-14T18:58:00.121Z,49.40
2018-07-14T19:00:28.457Z,49.40
2018-07-14T19:02:56.796Z,49.50
2018-07-14T19:05:25.165Z,49.40
2018-07-14T19:07:53.511Z,49.40
2018-07-14T19:12:50.009Z,49.50
2018-07-14T19:15:18.743Z,49.90
2018-07-14T19:17:47.404Z,49.90
2018-07-14T19:20:15.740Z,50.70
2018-07-14T19:22:44.085Z,51.50
2018-07-14T19:25:12.397Z,52.10
2018-07-14T19:27:40.756Z,52.60
2018-07-14T19:30:09.131Z,52.90
2018-07-14T19:32:37.445Z,53.20
2018-07-14T19:35:05.896Z,53.30
2018-07-14T19:37:34.178Z,53.60
2018-07-14T19:40:02.525Z,54.00
2018-07-14T19:42:30.894Z,54.70
2018-07-14T19:44:59.224Z,55.10
2018-07-14T19:47:27.570Z,55.50
2018-07-14T19:49:55.888Z,56.30
2018-07-14T19:52:24.245Z,57.10
2018-07-14T19:54:52.576Z,57.20
2018-07-14T19:57:20.980Z,57.70
2018-07-14T19:59:49.296Z,57.90
2018-07-14T20:02:17.675Z,57.90
2018-07-14T20:04:45.982Z,58.00
2018-07-14T20:07:14.348Z,58.30
2018-07-14T20:09:42.677Z,58.50
2018-07-14T20:12:11.060Z,58.70
2018-07-14T20:14:39.376Z,59.10
2018-07-14T20:17:07.712Z,59.50
2018-07-14T20:19:36.105Z,60.70
2018-07-14T20:22:04.412Z,60.50
2018-07-14T20:24:32.760Z,61.00
2018-07-14T20:27:01.124Z,61.60
2018-07-14T20:29:29.441Z,62.50
2018-07-14T20:34:25.885Z,64.00
2018-07-14T20:36:54.687Z,64.50
2018-07-14T20:39:23.004Z,64.50
2018-07-14T20:41:51.651Z,64.10
2018-07-14T20:44:19.935Z,63.70
2018-07-14T20:46:48.682Z,63.70
2018-07-14T20:49:17.024Z,64.00
2018-07-14T20:51:45.372Z,64.70
2018-07-14T20:54:13.688Z,65.30
2018-07-14T20:56:42.045Z,66.00
2018-07-14T20:59:10.372Z,66.50
2018-07-14T21:01:38.732Z,66.80
2018-07-14T21:04:07.066Z,66.90
2018-07-14T21:06:35.429Z,66.90
2018-07-14T21:09:04.301Z,67.10
2018-07-14T21:11:32.656Z,67.10
2018-07-14T21:14:00.969Z,68.10
2018-07-14T21:16:29.333Z,68.40
2018-07-14T21:18:57.681Z,69.00
2018-07-14T21:21:26.169Z,69.40
2018-07-14T21:23:54.408Z,69.70
2018-07-14T21:26:22.741Z,69.50
2018-07-14T21:28:54.943Z,69.40
2018-07-14T21:31:23.305Z,69.40
2018-07-14T21:33:51.689Z,69.40
2018-07-14T21:36:20.042Z,69.60
2018-07-14T21:38:48.381Z,70.80
2018-07-14T21:43:44.784Z,72.60
2018-07-14T21:46:13.113Z,73.70
2018-07-14T21:48:41.460Z,73.30
2018-07-14T21:51:09.805Z,73.60
2018-07-14T21:53:38.153Z,74.30
2018-07-14T21:56:06.485Z,75.20
2018-07-14T21:58:34.833Z,76.20
2018-07-14T22:01:08.525Z,77.30
2018-07-14T22:03:36.928Z,78.00
2018-07-14T22:06:05.441Z,78.50
2018-07-14T22:08:33.900Z,79.10
2018-07-14T22:11:02.504Z,78.90
2018-07-14T22:13:30.970Z,78.80
2018-07-14T22:15:59.299Z,79.10
2018-07-14T22:18:27.657Z,78.30
2018-07-14T22:20:56.020Z,78.40
2018-07-14T22:23:24.373Z,78.40
2018-07-14T22:25:52.687Z,77.90
2018-07-14T22:28:21.054Z,77.50
2018-07-14T22:30:49.492Z,77.80
2018-07-14T22:33:17.924Z,77.60
2018-07-14T22:35:46.290Z,78.50
2018-07-14T22:38:14.665Z,79.00
2018-07-14T22:40:42.977Z,78.70
2018-07-14T22:43:11.341Z,78.30
2018-07-14T22:45:39.657Z,77.80
2018-07-14T22:48:08.018Z,78.00
2018-07-14T22:50:36.325Z,77.90
2018-07-14T22:53:04.665Z,77.80
2018-07-14T22:55:32.981Z,77.70
2018-07-14T22:58:01.320Z,78.00
2018-07-14T23:00:29.632Z,78.10
2018-07-14T23:02:57.968Z,78.30
2018-07-14T23:05:26.289Z,78.40
2018-07-14T23:07:54.641Z,78.80
2018-07-14T23:10:23.025Z,79.40
2018-07-14T23:12:51.388Z,80.40
2018-07-14T23:15:19.710Z,80.90
2018-07-14T23:17:48.064Z,81.10
2018-07-14T23:20:16.376Z,81.20
2018-07-14T23:22:44.724Z,81.40
2018-07-14T23:25:13.061Z,81.40
2018-07-14T23:27:41.468Z,81.80
2018-07-14T23:30:09.821Z,82.40
2018-07-14T23:32:38.230Z,82.30
2018-07-14T23:35:06.608Z,82.40
2018-07-14T23:37:35.498Z,82.50
2018-07-14T23:42:31.898Z,82.80
2018-07-14T23:45:00.395Z,82.80
2018-07-14T23:47:28.716Z,83.00
2018-07-14T23:49:57.057Z,83.50
2018-07-14T23:52:25.384Z,83.70
2018-07-14T23:54:53.737Z,84.10
2018-07-14T23:57:22.061Z,84.50
